Time;durP1;ratioP1;P1;durP2;ratioP2;P2;SDS_P1;SDS_P2;PMS_P1;PMS_P2;Temp;Humidity;BMP_temperature;BMP_pressure;BME280_temperature;BME280_humidity;BME280_pressure;Samples;Min_cycle;Max_cycle;Signal;HPM_P1;HPM_P2
2021/11/05 12:31:30;;;;;;;0.55;0.30;;;;;;;;;;6212978;22;20019;-77
2021/11/05 12:34:35;;;;;;;0.50;0.40;;;;;;;;;;6246619;23;20138;-77
2021/11/05 12:37:00;;;;;;;1.00;0.47;;;;;;;;;;6246773;23;20037;-77
2021/11/05 12:39:30;;;;;;;0.43;0.43;;;;;;;;;;6247053;23;20327;-78
2021/11/05 12:42:04;;;;;;;2.58;0.40;;;;;;;;;;6246728;23;20011;-77
2021/11/05 12:44:58;;;;;;;1.42;0.50;;;;;;;;;;6246942;23;20000;-78
2021/11/05 15:36:58;;;;;;;0.75;0.57;;;;;;;;;;6264969;22;20016;-79
2021/11/05 15:39:24;;;;;;;0.77;0.50;;;;;;;;;;6247513;23;20035;-76
2021/11/05 15:41:49;;;;;;;0.60;0.60;;;;;;;;;;6247527;23;20054;-78
2021/11/05 15:44:14;;;;;;;0.77;0.50;;;;;;;;;;6247369;23;20008;-79
2021/11/05 15:46:40;;;;;;;0.60;0.57;;;;;;;;;;6247439;23;20047;-76
2021/11/05 15:49:06;;;;;;;0.82;0.77;;;;;;;;;;6247321;23;20373;-78
2021/11/05 15:51:31;;;;;;;0.45;0.45;;;;;;;;;;6247559;23;20370;-78
2021/11/05 15:53:56;;;;;;;1.00;0.70;;;;;;;;;;6246495;23;20327;-76
2021/11/05 15:56:22;;;;;;;0.75;0.60;;;;;;;;;;6246922;23;20000;-77
2021/11/05 15:58:48;;;;;;;1.55;1.20;;;;;;;;;;6247420;23;20007;-78
2021/11/05 16:01:18;;;;;;;1.17;0.93;;;;;;;;;;6247372;23;20004;-78
2021/11/05 16:03:44;;;;;;;0.70;0.70;;;;;;;;;;6247538;23;20300;-78
2021/11/05 16:06:09;;;;;;;1.45;0.50;;;;;;;;;;6247025;23;20001;-78
2021/11/05 16:08:36;;;;;;;3.10;0.50;;;;;;;;;;6220334;23;20004;-77
2021/11/05 16:11:03;;;;;;;0.82;0.70;;;;;;;;;;6246993;23;20000;-78
2021/11/05 16:13:28;;;;;;;0.70;0.60;;;;;;;;;;6246953;23;20000;-77
2021/11/05 16:15:53;;;;;;;0.50;0.50;;;;;;;;;;6246831;23;20010;-76
2021/11/05 16:18:19;;;;;;;1.67;0.68;;;;;;;;;;6247512;23;20047;-79
2021/11/05 16:20:45;;;;;;;6.88;4.88;;;;;;;;;;6248377;23;20000;-78
2021/11/05 16:23:11;;;;;;;4.85;4.38;;;;;;;;;;6222650;23;20035;-80
2021/11/05 16:25:37;;;;;;;5.10;4.55;;;;;;;;;;6221092;23;20100;-79
2021/11/05 16:28:03;;;;;;;8.95;7.82;;;;;;;;;;6247567;23;20000;-77
2021/11/05 16:30:29;;;;;;;11.88;10.88;;;;;;;;;;6247280;23;20008;-77
2021/11/05 16:32:56;;;;;;;3.10;2.88;;;;;;;;;;6247268;23;20026;-77
2021/11/05 16:35:23;;;;;;;1.00;1.00;;;;;;;;;;6246978;23;20011;-78
2021/11/05 16:37:48;;;;;;;1.45;1.35;;;;;;;;;;6267791;22;20015;-78
2021/11/05 16:40:15;;;;;;;1.35;1.10;;;;;;;;;;6277350;22;20003;-77
2021/11/05 16:42:41;;;;;;;1.13;1.05;;;;;;;;;;6277457;22;20000;-77
2021/11/05 16:45:08;;;;;;;1.00;0.95;;;;;;;;;;6277736;22;20000;-78
2021/11/05 16:47:34;;;;;;;1.35;0.85;;;;;;;;;;6277813;22;20004;-78
2021/11/05 16:50:00;;;;;;;1.55;1.00;;;;;;;;;;6277370;22;20011;-76
2021/11/05 16:52:26;;;;;;;0.60;0.60;;;;;;;;;;6278358;22;20446;-77
2021/11/05 16:54:51;;;;;;;0.65;0.65;;;;;;;;;;6277383;22;20006;-77
2021/11/05 16:57:17;;;;;;;0.98;0.95;;;;;;;;;;6277274;22;20004;-77
2021/11/05 16:59:43;;;;;;;1.05;0.95;;;;;;;;;;6277434;22;20110;-76
2021/11/05 17:02:09;;;;;;;1.88;0.80;;;;;;;;;;6277237;22;20003;-78
2021/11/05 17:04:34;;;;;;;1.42;1.20;;;;;;;;;;6277606;22;20003;-78
2021/11/05 17:06:59;;;;;;;1.58;0.60;;;;;;;;;;6277351;22;19996;-76
2021/11/05 17:09:25;;;;;;;0.70;0.70;;;;;;;;;;6277921;22;20004;-75
2021/11/05 17:11:52;;;;;;;1.17;0.90;;;;;;;;;;6277382;22;20006;-81
2021/11/05 17:14:18;;;;;;;1.40;0.80;;;;;;;;;;6277086;22;20021;-78
2021/11/05 17:16:45;;;;;;;1.85;1.10;;;;;;;;;;6250864;22;19999;-80
2021/11/05 17:19:10;;;;;;;1.70;1.58;;;;;;;;;;6277416;22;20019;-80
2021/11/05 17:21:37;;;;;;;2.15;1.67;;;;;;;;;;6250617;22;20023;-80
2021/11/05 17:24:03;;;;;;;2.05;1.55;;;;;;;;;;6277347;22;20075;-80
2021/11/05 17:26:30;;;;;;;1.42;0.90;;;;;;;;;;6277906;22;20421;-81
2021/11/05 17:28:56;;;;;;;1.73;0.90;;;;;;;;;;6279902;22;20011;-81
2021/11/05 17:31:22;;;;;;;2.03;1.60;;;;;;;;;;6279590;22;20004;-81
2021/11/05 17:33:48;;;;;;;1.20;0.93;;;;;;;;;;6279392;22;20003;-80
2021/11/05 17:36:14;;;;;;;1.25;1.15;;;;;;;;;;6251935;22;20011;-81
2021/11/05 17:38:41;;;;;;;1.35;0.98;;;;;;;;;;6279643;22;20066;-80
2021/11/05 17:41:07;;;;;;;1.40;1.30;;;;;;;;;;6252179;22;20007;-80
2021/11/05 17:43:33;;;;;;;2.95;2.25;;;;;;;;;;6279588;22;20003;-80
2021/11/05 17:46:03;;;;;;;2.00;1.65;;;;;;;;;;6279627;22;20085;-80
2021/11/05 17:48:30;;;;;;;1.65;1.20;;;;;;;;;;6280327;22;20003;-80
2021/11/05 17:50:55;;;;;;;4.00;1.40;;;;;;;;;;6280173;22;20073;-79
2021/11/05 17:53:22;;;;;;;2.17;1.67;;;;;;;;;;6279306;22;20422;-77
2021/11/05 17:55:48;;;;;;;1.40;1.08;;;;;;;;;;6279501;22;20007;-77
2021/11/05 17:58:14;;;;;;;1.55;1.25;;;;;;;;;;6279736;22;20034;-76
2021/11/05 18:00:43;;;;;;;1.33;1.10;;;;;;;;;;6252391;22;19996;-79
2021/11/05 18:03:15;;;;;;;2.38;1.55;;;;;;;;;;6252502;22;20408;-78
2021/11/05 18:05:42;;;;;;;38.40;13.73;;;;;;;;;;6279807;22;20008;-80
2021/11/05 18:08:08;;;;;;;12.82;6.13;;;;;;;;;;6279567;22;20046;-80
2021/11/05 18:10:35;;;;;;;3.05;1.50;;;;;;;;;;6252772;22;20008;-79
2021/11/05 18:13:01;;;;;;;2.38;1.60;;;;;;;;;;6279487;22;19995;-79
2021/11/05 18:15:27;;;;;;;2.90;1.25;;;;;;;;;;6279346;22;20449;-81
2021/11/05 18:17:52;;;;;;;1.80;1.52;;;;;;;;;;6279628;22;20000;-77
2021/11/05 18:20:18;;;;;;;2.03;1.45;;;;;;;;;;6279468;22;20034;-76
2021/11/05 18:22:44;;;;;;;1.50;1.40;;;;;;;;;;6279441;22;20050;-80
2021/11/05 18:25:10;;;;;;;1.55;1.25;;;;;;;;;;6279335;22;20418;-79
2021/11/05 18:27:36;;;;;;;1.20;1.10;;;;;;;;;;6279645;22;20071;-80
2021/11/05 22:14:20;;;;;;;1.43;1.17;;;;;;;;;;6261229;22;20366;-78
2021/11/05 22:16:45;;;;;;;3.03;1.50;;;;;;;;;;6248351;23;20014;-77
2021/11/05 22:19:10;;;;;;;2.67;1.33;;;;;;;;;;6221480;23;20011;-77
2021/11/05 22:21:36;;;;;;;1.23;1.10;;;;;;;;;;6248302;23;20373;-79
2021/11/05 22:24:03;;;;;;;1.20;1.10;;;;;;;;;;6248525;23;20057;-78
2021/11/05 22:26:28;;;;;;;1.67;1.30;;;;;;;;;;6248709;23;20031;-80
2021/11/05 22:28:54;;;;;;;1.40;1.15;;;;;;;;;;6248492;23;20411;-78
2021/11/05 22:31:19;;;;;;;1.20;1.10;;;;;;;;;;6248146;23;20497;-81
2021/11/05 22:33:45;;;;;;;1.90;1.10;;;;;;;;;;6221329;23;20015;-79
2021/11/05 22:36:10;;;;;;;1.90;1.27;;;;;;;;;;6221603;23;20414;-79
2021/11/05 22:38:36;;;;;;;2.20;1.40;;;;;;;;;;6248670;23;20087;-79
2021/11/05 22:41:02;;;;;;;2.00;1.48;;;;;;;;;;6248112;23;20009;-81
2021/11/05 22:43:28;;;;;;;3.55;1.20;;;;;;;;;;6248433;23;20023;-81
2021/11/05 22:45:54;;;;;;;1.52;1.30;;;;;;;;;;6248179;23;20066;-81
2021/11/05 22:48:20;;;;;;;2.25;1.65;;;;;;;;;;6248162;23;20008;-81
2021/11/05 22:50:49;;;;;;;1.35;1.20;;;;;;;;;;6221319;23;20485;-82
2021/11/05 22:53:16;;;;;;;1.27;1.15;;;;;;;;;;6248372;23;20028;-81
2021/11/05 22:55:41;;;;;;;1.95;1.50;;;;;;;;;;6247845;23;20058;-81
2021/11/05 22:58:09;;;;;;;2.80;1.00;;;;;;;;;;6221311;23;20079;-81
2021/11/05 23:00:35;;;;;;;1.27;1.17;;;;;;;;;;6221229;23;20316;-81
2021/11/05 23:03:01;;;;;;;3.47;1.30;;;;;;;;;;6248181;23;20007;-81
2021/11/05 23:05:27;;;;;;;2.58;1.30;;;;;;;;;;6221070;23;20308;-81
2021/11/05 23:07:52;;;;;;;1.95;1.33;;;;;;;;;;6248711;23;20056;-81
2021/11/05 23:10:18;;;;;;;1.08;0.95;;;;;;;;;;6248125;23;20011;-81
2021/11/05 23:12:45;;;;;;;1.45;1.17;;;;;;;;;;6247840;23;20374;-81
2021/11/05 23:15:10;;;;;;;1.73;1.27;;;;;;;;;;6272764;22;20061;-81
2021/11/05 23:17:36;;;;;;;3.00;1.38;;;;;;;;;;6251213;22;20039;-81
2021/11/05 23:20:02;;;;;;;2.53;1.42;;;;;;;;;;6278892;22;20006;-82
2021/11/05 23:22:27;;;;;;;1.73;1.45;;;;;;;;;;6279094;22;20015;-80
2021/11/05 23:24:53;;;;;;;3.53;1.35;;;;;;;;;;6278293;22;20004;-81
2021/11/05 23:27:18;;;;;;;2.28;1.45;;;;;;;;;;6278709;22;20054;-80
2021/11/05 23:29:44;;;;;;;1.65;1.33;;;;;;;;;;6278240;22;20453;-80
2021/11/05 23:32:09;;;;;;;1.73;1.17;;;;;;;;;;6278489;22;20048;-81
2021/11/05 23:34:35;;;;;;;2.63;1.52;;;;;;;;;;6278098;22;20091;-80
2021/11/05 23:37:00;;;;;;;2.13;1.60;;;;;;;;;;6278342;22;20000;-80
2021/11/05 23:39:26;;;;;;;2.53;1.48;;;;;;;;;;6251166;22;20427;-80
2021/11/05 23:41:52;;;;;;;2.08;1.38;;;;;;;;;;6278449;22;20004;-80
2021/11/05 23:44:18;;;;;;;1.73;1.42;;;;;;;;;;6278360;22;20007;-80
2021/11/05 23:46:43;;;;;;;1.95;1.13;;;;;;;;;;6278663;22;20010;-80
2021/11/05 23:49:09;;;;;;;1.48;1.20;;;;;;;;;;6278597;22;20014;-78
2021/11/05 23:51:34;;;;;;;1.90;1.38;;;;;;;;;;6278419;22;20423;-80
2021/11/05 23:54:00;;;;;;;1.85;1.30;;;;;;;;;;6278267;22;20000;-80
2021/11/05 23:56:25;;;;;;;2.15;1.20;;;;;;;;;;6251046;22;20014;-79
2021/11/05 23:58:51;;;;;;;1.65;1.15;;;;;;;;;;6278340;22;20053;-80
